sensor_id;sensor_type;location;lat;lon;timestamp;P1;durP1;ratioP1;P2;durP2;ratioP2
56680;SDS011;42558;52.388;13.390;2022-11-18T00:01:49;40.66;;;20.52;;
56680;SDS011;42558;52.388;13.390;2022-11-18T00:04:17;59.28;;;32.49;;
56680;SDS011;42558;52.388;13.390;2022-11-18T00:06:45;53.77;;;26.60;;
56680;SDS011;42558;52.388;13.390;2022-11-18T00:09:14;50.73;;;26.22;;
56680;SDS011;42558;52.388;13.390;2022-11-18T00:11:44;50.92;;;27.74;;
56680;SDS011;42558;52.388;13.390;2022-11-18T00:14:33;58.52;;;26.79;;
56680;SDS011;42558;52.388;13.390;2022-11-18T00:17:04;41.80;;;21.09;;
56680;SDS011;42558;52.388;13.390;2022-11-18T00:19:37;59.66;;;29.45;;
56680;SDS011;42558;52.388;13.390;2022-11-18T00:22:10;56.05;;;27.74;;
56680;SDS011;42558;52.388;13.390;2022-11-18T00:24:40;62.32;;;30.97;;
56680;SDS011;42558;52.388;13.390;2022-11-18T00:27:10;55.29;;;28.12;;
56680;SDS011;42558;52.388;13.390;2022-11-18T00:29:40;51.87;;;25.46;;
56680;SDS011;42558;52.388;13.390;2022-11-18T00:32:10;61.94;;;29.45;;
56680;SDS011;42558;52.388;13.390;2022-11-18T00:34:40;56.62;;;27.36;;
56680;SDS011;42558;52.388;13.390;2022-11-18T00:37:11;58.14;;;27.36;;
56680;SDS011;42558;52.388;13.390;2022-11-18T00:39:40;58.52;;;28.31;;
56680;SDS011;42558;52.388;13.390;2022-11-18T00:42:11;58.90;;;28.88;;
56680;SDS011;42558;52.388;13.390;2022-11-18T00:45:00;46.36;;;22.23;;
56680;SDS011;42558;52.388;13.390;2022-11-18T00:47:29;60.99;;;29.45;;
56680;SDS011;42558;52.388;13.390;2022-11-18T00:49:59;60.42;;;28.50;;
56680;SDS011;42558;52.388;13.390;2022-11-18T00:52:29;53.01;;;28.50;;
56680;SDS011;42558;52.388;13.390;2022-11-18T00:54:59;55.86;;;27.36;;
56680;SDS011;42558;52.388;13.390;2022-11-18T00:57:29;54.15;;;25.27;;
56680;SDS011;42558;52.388;13.390;2022-11-18T00:59:59;43.89;;;21.66;;
56680;SDS011;42558;52.388;13.390;2022-11-18T01:02:29;47.12;;;24.51;;
56680;SDS011;42558;52.388;13.390;2022-11-18T01:04:59;57.76;;;28.31;;
56680;SDS011;42558;52.388;13.390;2022-11-18T01:07:29;61.94;;;29.45;;
56680;SDS011;42558;52.388;13.390;2022-11-18T01:09:59;56.43;;;27.17;;
56680;SDS011;42558;52.388;13.390;2022-11-18T01:12:29;57.76;;;28.88;;
56680;SDS011;42558;52.388;13.390;2022-11-18T01:15:22;63.08;;;28.69;;
56680;SDS011;42558;52.388;13.390;2022-11-18T01:17:52;55.86;;;29.07;;
56680;SDS011;42558;52.388;13.390;2022-11-18T01:20:22;54.34;;;28.69;;
56680;SDS011;42558;52.388;13.390;2022-11-18T01:22:52;52.06;;;25.65;;
56680;SDS011;42558;52.388;13.390;2022-11-18T01:25:22;54.72;;;26.60;;
56680;SDS011;42558;52.388;13.390;2022-11-18T01:27:52;59.28;;;32.11;;
56680;SDS011;42558;52.388;13.390;2022-11-18T01:30:22;55.29;;;29.26;;
56680;SDS011;42558;52.388;13.390;2022-11-18T01:32:52;56.62;;;27.93;;
56680;SDS011;42558;52.388;13.390;2022-11-18T01:35:22;51.30;;;24.32;;
56680;SDS011;42558;52.388;13.390;2022-11-18T01:37:52;58.52;;;29.45;;
56680;SDS011;42558;52.388;13.390;2022-11-18T01:40:22;57.00;;;29.07;;
56680;SDS011;42558;52.388;13.390;2022-11-18T01:42:55;53.20;;;27.55;;
56680;SDS011;42558;52.388;13.390;2022-11-18T01:45:34;56.24;;;29.26;;
56680;SDS011;42558;52.388;13.390;2022-11-18T01:48:08;55.67;;;29.45;;
56680;SDS011;42558;52.388;13.390;2022-11-18T01:51:15;44.08;;;25.27;;
56680;SDS011;42558;52.388;13.390;2022-11-18T01:53:49;58.14;;;29.45;;
56680;SDS011;42558;52.388;13.390;2022-11-18T01:56:25;57.95;;;29.26;;
56680;SDS011;42558;52.388;13.390;2022-11-18T01:59:03;58.52;;;27.17;;
56680;SDS011;42558;52.388;13.390;2022-11-18T02:02:09;60.99;;;30.02;;
56680;SDS011;42558;52.388;13.390;2022-11-18T02:04:43;56.05;;;28.50;;
56680;SDS011;42558;52.388;13.390;2022-11-18T02:07:16;53.58;;;27.55;;
56680;SDS011;42558;52.388;13.390;2022-11-18T02:09:47;53.39;;;28.88;;
56680;SDS011;42558;52.388;13.390;2022-11-18T02:12:19;49.40;;;27.36;;
56680;SDS011;42558;52.388;13.390;2022-11-18T02:14:50;54.91;;;28.50;;
56680;SDS011;42558;52.388;13.390;2022-11-18T02:20:41;42.18;;;23.75;;
56680;SDS011;42558;52.388;13.390;2022-11-18T02:23:20;49.59;;;25.65;;
56680;SDS011;42558;52.388;13.390;2022-11-18T02:29:17;53.01;;;26.41;;
56680;SDS011;42558;52.388;13.390;2022-11-18T02:32:03;50.92;;;26.41;;
56680;SDS011;42558;52.388;13.390;2022-11-18T02:34:53;54.15;;;28.12;;
56680;SDS011;42558;52.388;13.390;2022-11-18T02:37:39;45.41;;;26.79;;
56680;SDS011;42558;52.388;13.390;2022-11-18T02:40:27;54.15;;;28.50;;
56680;SDS011;42558;52.388;13.390;2022-11-18T02:43:08;39.71;;;19.00;;
56680;SDS011;42558;52.388;13.390;2022-11-18T02:45:43;50.92;;;27.74;;
56680;SDS011;42558;52.388;13.390;2022-11-18T02:48:18;52.06;;;26.03;;
56680;SDS011;42558;52.388;13.390;2022-11-18T02:50:53;51.30;;;27.36;;
56680;SDS011;42558;52.388;13.390;2022-11-18T02:53:25;53.20;;;27.74;;
56680;SDS011;42558;52.388;13.390;2022-11-18T02:56:00;49.78;;;27.17;;
56680;SDS011;42558;52.388;13.390;2022-11-18T02:58:32;45.60;;;25.46;;
56680;SDS011;42558;52.388;13.390;2022-11-18T03:01:01;46.17;;;24.13;;
56680;SDS011;42558;52.388;13.390;2022-11-18T03:03:35;62.32;;;30.78;;
56680;SDS011;42558;52.388;13.390;2022-11-18T03:09:10;43.70;;;20.71;;
56680;SDS011;42558;52.388;13.390;2022-11-18T03:20:37;45.22;;;22.99;;
56680;SDS011;42558;52.388;13.390;2022-11-18T03:26:10;53.96;;;28.50;;
56680;SDS011;42558;52.388;13.390;2022-11-18T03:28:53;50.35;;;25.46;;
56680;SDS011;42558;52.388;13.390;2022-11-18T03:31:43;45.41;;;22.61;;
56680;SDS011;42558;52.388;13.390;2022-11-18T03:36:59;49.97;;;24.89;;
56680;SDS011;42558;52.388;13.390;2022-11-18T03:39:40;48.45;;;23.37;;
56680;SDS011;42558;52.388;13.390;2022-11-18T03:42:18;50.16;;;25.08;;
56680;SDS011;42558;52.388;13.390;2022-11-18T03:44:55;54.72;;;26.41;;
56680;SDS011;42558;52.388;13.390;2022-11-18T03:47:33;45.79;;;22.80;;
56680;SDS011;42558;52.388;13.390;2022-11-18T03:50:21;49.21;;;27.36;;
56680;SDS011;42558;52.388;13.390;2022-11-18T03:52:56;50.16;;;27.55;;
56680;SDS011;42558;52.388;13.390;2022-11-18T03:55:33;50.16;;;26.41;;
56680;SDS011;42558;52.388;13.390;2022-11-18T03:58:24;45.41;;;25.27;;
56680;SDS011;42558;52.388;13.390;2022-11-18T04:01:03;47.31;;;23.94;;
56680;SDS011;42558;52.388;13.390;2022-11-18T04:03:41;55.67;;;29.26;;
56680;SDS011;42558;52.388;13.390;2022-11-18T04:06:36;48.07;;;25.84;;
56680;SDS011;42558;52.388;13.390;2022-11-18T04:09:40;54.72;;;27.17;;
56680;SDS011;42558;52.388;13.390;2022-11-18T04:12:14;45.79;;;25.27;;
56680;SDS011;42558;52.388;13.390;2022-11-18T04:14:48;45.03;;;23.37;;
56680;SDS011;42558;52.388;13.390;2022-11-18T04:17:25;49.59;;;27.36;;
56680;SDS011;42558;52.388;13.390;2022-11-18T04:19:56;54.34;;;27.17;;
56680;SDS011;42558;52.388;13.390;2022-11-18T04:22:26;55.10;;;27.74;;
56680;SDS011;42558;52.388;13.390;2022-11-18T04:24:56;51.68;;;27.74;;
56680;SDS011;42558;52.388;13.390;2022-11-18T04:27:26;55.86;;;28.50;;
56680;SDS011;42558;52.388;13.390;2022-11-18T04:29:56;47.12;;;26.98;;
56680;SDS011;42558;52.388;13.390;2022-11-18T04:32:26;55.10;;;28.69;;
56680;SDS011;42558;52.388;13.390;2022-11-18T04:34:56;56.81;;;27.93;;
56680;SDS011;42558;52.388;13.390;2022-11-18T04:37:26;53.01;;;27.55;;
56680;SDS011;42558;52.388;13.390;2022-11-18T04:39:55;42.94;;;22.61;;
56680;SDS011;42558;52.388;13.390;2022-11-18T04:42:26;53.58;;;27.74;;
56680;SDS011;42558;52.388;13.390;2022-11-18T04:44:55;52.63;;;26.79;;
56680;SDS011;42558;52.388;13.390;2022-11-18T04:47:26;48.83;;;26.60;;
56680;SDS011;42558;52.388;13.390;2022-11-18T04:49:55;58.33;;;29.07;;
56680;SDS011;42558;52.388;13.390;2022-11-18T04:52:25;50.35;;;25.65;;
56680;SDS011;42558;52.388;13.390;2022-11-18T04:54:55;55.48;;;29.07;;
56680;SDS011;42558;52.388;13.390;2022-11-18T04:57:25;53.20;;;30.40;;
56680;SDS011;42558;52.388;13.390;2022-11-18T04:59:55;48.83;;;26.41;;
56680;SDS011;42558;52.388;13.390;2022-11-18T05:02:25;50.35;;;26.79;;
56680;SDS011;42558;52.388;13.390;2022-11-18T05:04:54;50.73;;;27.17;;
56680;SDS011;42558;52.388;13.390;2022-11-18T05:07:27;51.68;;;28.31;;
56680;SDS011;42558;52.388;13.390;2022-11-18T05:09:57;49.59;;;26.60;;
56680;SDS011;42558;52.388;13.390;2022-11-18T05:12:27;56.43;;;28.88;;
56680;SDS011;42558;52.388;13.390;2022-11-18T05:15:20;53.39;;;29.26;;
56680;SDS011;42558;52.388;13.390;2022-11-18T05:17:50;57.00;;;27.93;;
56680;SDS011;42558;52.388;13.390;2022-11-18T05:20:17;55.10;;;29.26;;
56680;SDS011;42558;52.388;13.390;2022-11-18T05:22:47;59.28;;;29.26;;
56680;SDS011;42558;52.388;13.390;2022-11-18T05:25:17;60.04;;;30.40;;
56680;SDS011;42558;52.388;13.390;2022-11-18T05:27:47;54.34;;;27.36;;
56680;SDS011;42558;52.388;13.390;2022-11-18T05:30:17;56.62;;;27.74;;
56680;SDS011;42558;52.388;13.390;2022-11-18T05:32:46;56.24;;;28.88;;
56680;SDS011;42558;52.388;13.390;2022-11-18T05:35:16;63.46;;;30.97;;
56680;SDS011;42558;52.388;13.390;2022-11-18T05:37:46;62.13;;;31.54;;
56680;SDS011;42558;52.388;13.390;2022-11-18T05:40:16;60.80;;;29.26;;
56680;SDS011;42558;52.388;13.390;2022-11-18T05:42:46;58.71;;;27.55;;
56680;SDS011;42558;52.388;13.390;2022-11-18T05:45:33;63.84;;;30.40;;
56680;SDS011;42558;52.388;13.390;2022-11-18T05:48:03;52.82;;;26.60;;
56680;SDS011;42558;52.388;13.390;2022-11-18T05:50:36;66.12;;;32.30;;
56680;SDS011;42558;52.388;13.390;2022-11-18T05:53:05;70.11;;;32.68;;
56680;SDS011;42558;52.388;13.390;2022-11-18T05:55:43;70.87;;;34.20;;
56680;SDS011;42558;52.388;13.390;2022-11-18T05:58:15;61.94;;;27.36;;
56680;SDS011;42558;52.388;13.390;2022-11-18T06:00:49;70.49;;;34.01;;
56680;SDS011;42558;52.388;13.390;2022-11-18T06:03:25;72.77;;;32.87;;
56680;SDS011;42558;52.388;13.390;2022-11-18T06:06:01;74.10;;;33.06;;
56680;SDS011;42558;52.388;13.390;2022-11-18T06:08:36;78.09;;;34.77;;
56680;SDS011;42558;52.388;13.390;2022-11-18T06:11:11;73.53;;;33.25;;
56680;SDS011;42558;52.388;13.390;2022-11-18T06:13:54;63.08;;;32.87;;
56680;SDS011;42558;52.388;13.390;2022-11-18T06:16:31;76.00;;;35.15;;
56680;SDS011;42558;52.388;13.390;2022-11-18T06:19:09;65.74;;;30.59;;
56680;SDS011;42558;52.388;13.390;2022-11-18T06:21:39;65.93;;;31.54;;
56680;SDS011;42558;52.388;13.390;2022-11-18T06:24:10;68.02;;;32.87;;
56680;SDS011;42558;52.388;13.390;2022-11-18T06:26:41;58.71;;;28.69;;
56680;SDS011;42558;52.388;13.390;2022-11-18T06:29:13;65.17;;;29.45;;
56680;SDS011;42558;52.388;13.390;2022-11-18T06:31:53;63.27;;;30.40;;
56680;SDS011;42558;52.388;13.390;2022-11-18T06:34:22;59.66;;;28.69;;
56680;SDS011;42558;52.388;13.390;2022-11-18T06:36:52;60.42;;;30.40;;
56680;SDS011;42558;52.388;13.390;2022-11-18T06:39:22;57.38;;;28.88;;
56680;SDS011;42558;52.388;13.390;2022-11-18T06:41:52;67.83;;;30.59;;
56680;SDS011;42558;52.388;13.390;2022-11-18T06:44:22;60.61;;;29.07;;
56680;SDS011;42558;52.388;13.390;2022-11-18T06:46:52;62.13;;;30.59;;
56680;SDS011;42558;52.388;13.390;2022-11-18T06:49:23;62.89;;;30.78;;
56680;SDS011;42558;52.388;13.390;2022-11-18T06:51:54;56.43;;;26.22;;
56680;SDS011;42558;52.388;13.390;2022-11-18T06:54:21;58.52;;;27.74;;
56680;SDS011;42558;52.388;13.390;2022-11-18T06:56:51;45.60;;;24.70;;
56680;SDS011;42558;52.388;13.390;2022-11-18T06:59:20;55.48;;;26.22;;
56680;SDS011;42558;52.388;13.390;2022-11-18T07:01:52;60.04;;;29.26;;
56680;SDS011;42558;52.388;13.390;2022-11-18T07:04:22;51.49;;;24.89;;
56680;SDS011;42558;52.388;13.390;2022-11-18T07:06:52;50.73;;;24.51;;
56680;SDS011;42558;52.388;13.390;2022-11-18T07:09:22;54.91;;;27.36;;
56680;SDS011;42558;52.388;13.390;2022-11-18T07:11:52;57.76;;;28.12;;
56680;SDS011;42558;52.388;13.390;2022-11-18T07:14:22;54.91;;;25.08;;
56680;SDS011;42558;52.388;13.390;2022-11-18T07:16:52;56.43;;;28.31;;
56680;SDS011;42558;52.388;13.390;2022-11-18T07:19:22;53.20;;;26.22;;
56680;SDS011;42558;52.388;13.390;2022-11-18T07:21:51;53.01;;;26.03;;
56680;SDS011;42558;52.388;13.390;2022-11-18T07:24:21;56.05;;;28.50;;
56680;SDS011;42558;52.388;13.390;2022-11-18T07:26:52;57.19;;;27.55;;
56680;SDS011;42558;52.388;13.390;2022-11-18T07:29:21;45.60;;;24.13;;
56680;SDS011;42558;52.388;13.390;2022-11-18T07:31:50;56.24;;;27.17;;
56680;SDS011;42558;52.388;13.390;2022-11-18T07:34:18;54.72;;;27.36;;
56680;SDS011;42558;52.388;13.390;2022-11-18T07:36:46;59.09;;;27.74;;
56680;SDS011;42558;52.388;13.390;2022-11-18T07:39:15;51.11;;;27.74;;
56680;SDS011;42558;52.388;13.390;2022-11-18T07:41:43;61.18;;;27.55;;
56680;SDS011;42558;52.388;13.390;2022-11-18T07:44:12;49.97;;;23.75;;
56680;SDS011;42558;52.388;13.390;2022-11-18T07:46:40;47.69;;;21.66;;
56680;SDS011;42558;52.388;13.390;2022-11-18T07:49:10;56.81;;;26.98;;
56680;SDS011;42558;52.388;13.390;2022-11-18T07:51:40;63.65;;;29.26;;
56680;SDS011;42558;52.388;13.390;2022-11-18T07:54:11;53.01;;;25.27;;
56680;SDS011;42558;52.388;13.390;2022-11-18T07:56:40;51.30;;;26.03;;
56680;SDS011;42558;52.388;13.390;2022-11-18T07:59:08;50.92;;;22.80;;
56680;SDS011;42558;52.388;13.390;2022-11-18T08:01:38;53.96;;;26.60;;
56680;SDS011;42558;52.388;13.390;2022-11-18T08:04:10;53.77;;;27.55;;
56680;SDS011;42558;52.388;13.390;2022-11-18T08:06:40;42.37;;;19.00;;
56680;SDS011;42558;52.388;13.390;2022-11-18T08:09:10;49.21;;;23.94;;
56680;SDS011;42558;52.388;13.390;2022-11-18T08:11:40;49.21;;;24.32;;
56680;SDS011;42558;52.388;13.390;2022-11-18T08:14:10;44.08;;;22.23;;
56680;SDS011;42558;52.388;13.390;2022-11-18T08:16:39;50.35;;;26.03;;
56680;SDS011;42558;52.388;13.390;2022-11-18T08:19:09;51.87;;;26.22;;
56680;SDS011;42558;52.388;13.390;2022-11-18T08:21:39;42.37;;;21.28;;
56680;SDS011;42558;52.388;13.390;2022-11-18T08:24:09;53.96;;;26.03;;
56680;SDS011;42558;52.388;13.390;2022-11-18T08:33:34;52.06;;;25.65;;
56680;SDS011;42558;52.388;13.390;2022-11-18T08:36:10;53.96;;;23.94;;
56680;SDS011;42558;52.388;13.390;2022-11-18T08:38:44;46.55;;;25.08;;
56680;SDS011;42558;52.388;13.390;2022-11-18T08:41:16;49.21;;;23.18;;
56680;SDS011;42558;52.388;13.390;2022-11-18T08:43:58;44.84;;;23.75;;
56680;SDS011;42558;52.388;13.390;2022-11-18T08:46:29;42.18;;;19.38;;
56680;SDS011;42558;52.388;13.390;2022-11-18T08:48:59;50.16;;;25.27;;
56680;SDS011;42558;52.388;13.390;2022-11-18T08:51:30;46.36;;;22.04;;
56680;SDS011;42558;52.388;13.390;2022-11-18T08:54:00;48.83;;;23.75;;
56680;SDS011;42558;52.388;13.390;2022-11-18T08:56:29;45.98;;;24.89;;
56680;SDS011;42558;52.388;13.390;2022-11-18T08:58:59;43.32;;;23.56;;
56680;SDS011;42558;52.388;13.390;2022-11-18T09:01:29;48.45;;;26.03;;
56680;SDS011;42558;52.388;13.390;2022-11-18T09:03:59;57.38;;;28.88;;
56680;SDS011;42558;52.388;13.390;2022-11-18T09:06:29;41.61;;;21.28;;
56680;SDS011;42558;52.388;13.390;2022-11-18T09:08:59;51.49;;;28.12;;
56680;SDS011;42558;52.388;13.390;2022-11-18T09:11:37;43.70;;;22.23;;
56680;SDS011;42558;52.388;13.390;2022-11-18T09:14:10;43.89;;;21.85;;
56680;SDS011;42558;52.388;13.390;2022-11-18T09:17:01;48.64;;;25.65;;
56680;SDS011;42558;52.388;13.390;2022-11-18T09:19:31;44.65;;;24.32;;
56680;SDS011;42558;52.388;13.390;2022-11-18T09:22:16;45.03;;;23.94;;
56680;SDS011;42558;52.388;13.390;2022-11-18T09:24:45;43.32;;;22.23;;
56680;SDS011;42558;52.388;13.390;2022-11-18T09:27:13;44.27;;;24.51;;
56680;SDS011;42558;52.388;13.390;2022-11-18T09:29:44;45.22;;;22.99;;
56680;SDS011;42558;52.388;13.390;2022-11-18T09:32:13;45.03;;;24.89;;
56680;SDS011;42558;52.388;13.390;2022-11-18T09:34:41;45.03;;;25.84;;
56680;SDS011;42558;52.388;13.390;2022-11-18T09:37:10;49.21;;;25.27;;
56680;SDS011;42558;52.388;13.390;2022-11-18T09:39:38;40.47;;;23.37;;
56680;SDS011;42558;52.388;13.390;2022-11-18T09:42:18;45.41;;;24.32;;
56680;SDS011;42558;52.388;13.390;2022-11-18T09:46:26;46.74;;;26.79;;
56680;SDS011;42558;52.388;13.390;2022-11-18T09:49:11;41.42;;;21.66;;
56680;SDS011;42558;52.388;13.390;2022-11-18T09:51:48;43.13;;;24.70;;
56680;SDS011;42558;52.388;13.390;2022-11-18T09:54:22;50.73;;;23.94;;
56680;SDS011;42558;52.388;13.390;2022-11-18T09:56:54;43.70;;;22.99;;
56680;SDS011;42558;52.388;13.390;2022-11-18T09:59:27;38.76;;;21.47;;
56680;SDS011;42558;52.388;13.390;2022-11-18T10:05:28;33.63;;;20.33;;
56680;SDS011;42558;52.388;13.390;2022-11-18T10:11:22;35.15;;;19.76;;
56680;SDS011;42558;52.388;13.390;2022-11-18T10:17:30;39.52;;;22.04;;
56680;SDS011;42558;52.388;13.390;2022-11-18T10:25:23;34.20;;;18.05;;
56680;SDS011;42558;52.388;13.390;2022-11-18T10:27:54;34.39;;;21.47;;
56680;SDS011;42558;52.388;13.390;2022-11-18T10:30:43;35.91;;;19.57;;
56680;SDS011;42558;52.388;13.390;2022-11-18T10:33:25;31.92;;;20.14;;
56680;SDS011;42558;52.388;13.390;2022-11-18T10:39:13;30.97;;;17.67;;
56680;SDS011;42558;52.388;13.390;2022-11-18T10:41:50;33.63;;;18.62;;
56680;SDS011;42558;52.388;13.390;2022-11-18T10:44:33;24.32;;;15.20;;
56680;SDS011;42558;52.388;13.390;2022-11-18T10:47:21;34.96;;;20.14;;
56680;SDS011;42558;52.388;13.390;2022-11-18T10:50:00;29.64;;;16.72;;
56680;SDS011;42558;52.388;13.390;2022-11-18T10:52:52;25.84;;;15.39;;
56680;SDS011;42558;52.388;13.390;2022-11-18T10:55:24;31.73;;;18.43;;
56680;SDS011;42558;52.388;13.390;2022-11-18T10:58:02;31.16;;;18.43;;
56680;SDS011;42558;52.388;13.390;2022-11-18T11:00:45;26.98;;;16.91;;
56680;SDS011;42558;52.388;13.390;2022-11-18T11:03:42;31.35;;;18.62;;
56680;SDS011;42558;52.388;13.390;2022-11-18T11:11:42;31.35;;;18.81;;
56680;SDS011;42558;52.388;13.390;2022-11-18T11:14:43;28.12;;;16.15;;
56680;SDS011;42558;52.388;13.390;2022-11-18T11:17:36;31.35;;;17.29;;
56680;SDS011;42558;52.388;13.390;2022-11-18T11:20:19;27.55;;;16.15;;
56680;SDS011;42558;52.388;13.390;2022-11-18T11:22:53;31.73;;;15.58;;
56680;SDS011;42558;52.388;13.390;2022-11-18T11:25:33;26.41;;;16.91;;
56680;SDS011;42558;52.388;13.390;2022-11-18T11:28:31;27.17;;;15.96;;
56680;SDS011;42558;52.388;13.390;2022-11-18T11:39:39;28.69;;;16.15;;
56680;SDS011;42558;52.388;13.390;2022-11-18T11:48:26;24.13;;;15.01;;
56680;SDS011;42558;52.388;13.390;2022-11-18T11:51:15;24.51;;;14.82;;
56680;SDS011;42558;52.388;13.390;2022-11-18T11:56:45;24.13;;;12.35;;
56680;SDS011;42558;52.388;13.390;2022-11-18T12:07:48;25.27;;;14.06;;
56680;SDS011;42558;52.388;13.390;2022-11-18T12:10:44;24.32;;;13.68;;
56680;SDS011;42558;52.388;13.390;2022-11-18T12:32:37;27.55;;;15.01;;
56680;SDS011;42558;52.388;13.390;2022-11-18T12:37:46;21.09;;;11.78;;
56680;SDS011;42558;52.388;13.390;2022-11-18T12:40:34;25.46;;;15.39;;
56680;SDS011;42558;52.388;13.390;2022-11-18T12:48:56;24.89;;;14.06;;
56680;SDS011;42558;52.388;13.390;2022-11-18T12:54:36;22.80;;;13.87;;
56680;SDS011;42558;52.388;13.390;2022-11-18T12:57:20;19.19;;;11.59;;
56680;SDS011;42558;52.388;13.390;2022-11-18T12:59:52;25.84;;;14.63;;
56680;SDS011;42558;52.388;13.390;2022-11-18T13:02:25;21.28;;;13.49;;
56680;SDS011;42558;52.388;13.390;2022-11-18T13:05:23;23.37;;;13.87;;
56680;SDS011;42558;52.388;13.390;2022-11-18T13:08:16;20.33;;;12.73;;
56680;SDS011;42558;52.388;13.390;2022-11-18T13:10:55;23.18;;;13.49;;
56680;SDS011;42558;52.388;13.390;2022-11-18T13:14:11;23.75;;;12.92;;
56680;SDS011;42558;52.388;13.390;2022-11-18T13:17:40;20.14;;;11.02;;
56680;SDS011;42558;52.388;13.390;2022-11-18T13:20:28;18.05;;;10.83;;
56680;SDS011;42558;52.388;13.390;2022-11-18T13:26:05;19.19;;;10.64;;
56680;SDS011;42558;52.388;13.390;2022-11-18T13:29:22;17.67;;;11.21;;
56680;SDS011;42558;52.388;13.390;2022-11-18T13:32:27;15.01;;;9.69;;
56680;SDS011;42558;52.388;13.390;2022-11-18T13:35:10;16.34;;;9.31;;
56680;SDS011;42558;52.388;13.390;2022-11-18T13:37:53;19.00;;;9.88;;
56680;SDS011;42558;52.388;13.390;2022-11-18T13:43:00;16.72;;;9.31;;
56680;SDS011;42558;52.388;13.390;2022-11-18T13:45:31;15.01;;;9.31;;
56680;SDS011;42558;52.388;13.390;2022-11-18T13:48:11;14.82;;;8.93;;
56680;SDS011;42558;52.388;13.390;2022-11-18T13:50:47;15.58;;;9.69;;
56680;SDS011;42558;52.388;13.390;2022-11-18T13:56:14;14.63;;;9.50;;
56680;SDS011;42558;52.388;13.390;2022-11-18T13:58:57;14.63;;;8.55;;
56680;SDS011;42558;52.388;13.390;2022-11-18T14:01:53;16.15;;;9.69;;
56680;SDS011;42558;52.388;13.390;2022-11-18T14:04:29;16.15;;;9.50;;
56680;SDS011;42558;52.388;13.390;2022-11-18T14:07:34;17.48;;;8.55;;
56680;SDS011;42558;52.388;13.390;2022-11-18T14:10:08;17.10;;;9.12;;
56680;SDS011;42558;52.388;13.390;2022-11-18T14:12:43;13.30;;;8.93;;
56680;SDS011;42558;52.388;13.390;2022-11-18T14:17:59;15.01;;;9.69;;
56680;SDS011;42558;52.388;13.390;2022-11-18T14:20:30;12.54;;;7.98;;
56680;SDS011;42558;52.388;13.390;2022-11-18T14:23:00;14.63;;;8.55;;
56680;SDS011;42558;52.388;13.390;2022-11-18T14:25:33;11.02;;;7.22;;
56680;SDS011;42558;52.388;13.390;2022-11-18T14:33:37;13.30;;;8.17;;
56680;SDS011;42558;52.388;13.390;2022-11-18T14:36:14;11.59;;;7.79;;
56680;SDS011;42558;52.388;13.390;2022-11-18T14:38:48;13.30;;;8.17;;
56680;SDS011;42558;52.388;13.390;2022-11-18T14:41:39;13.49;;;8.17;;
56680;SDS011;42558;52.388;13.390;2022-11-18T14:44:16;14.44;;;8.93;;
56680;SDS011;42558;52.388;13.390;2022-11-18T14:46:50;10.45;;;7.03;;
56680;SDS011;42558;52.388;13.390;2022-11-18T14:49:27;15.01;;;8.36;;
56680;SDS011;42558;52.388;13.390;2022-11-18T14:52:01;15.39;;;8.93;;
56680;SDS011;42558;52.388;13.390;2022-11-18T14:54:32;14.82;;;8.55;;
56680;SDS011;42558;52.388;13.390;2022-11-18T14:57:05;14.06;;;7.22;;
56680;SDS011;42558;52.388;13.390;2022-11-18T14:59:35;13.30;;;8.55;;
56680;SDS011;42558;52.388;13.390;2022-11-18T15:02:08;14.25;;;8.36;;
56680;SDS011;42558;52.388;13.390;2022-11-18T15:04:43;12.73;;;8.17;;
56680;SDS011;42558;52.388;13.390;2022-11-18T15:07:14;13.11;;;7.60;;
56680;SDS011;42558;52.388;13.390;2022-11-18T15:09:51;13.30;;;7.79;;
56680;SDS011;42558;52.388;13.390;2022-11-18T15:12:21;16.53;;;9.12;;
56680;SDS011;42558;52.388;13.390;2022-11-18T15:14:51;14.82;;;8.55;;
56680;SDS011;42558;52.388;13.390;2022-11-18T15:17:21;13.68;;;8.55;;
56680;SDS011;42558;52.388;13.390;2022-11-18T15:19:51;14.44;;;7.60;;
56680;SDS011;42558;52.388;13.390;2022-11-18T15:22:21;16.15;;;7.79;;
56680;SDS011;42558;52.388;13.390;2022-11-18T15:24:51;12.35;;;7.60;;
56680;SDS011;42558;52.388;13.390;2022-11-18T15:27:20;11.97;;;7.03;;
56680;SDS011;42558;52.388;13.390;2022-11-18T15:29:50;13.87;;;6.65;;
56680;SDS011;42558;52.388;13.390;2022-11-18T15:32:20;13.49;;;7.79;;
56680;SDS011;42558;52.388;13.390;2022-11-18T15:34:50;11.59;;;6.65;;
56680;SDS011;42558;52.388;13.390;2022-11-18T15:37:20;14.44;;;7.41;;
56680;SDS011;42558;52.388;13.390;2022-11-18T15:39:50;14.06;;;7.41;;
56680;SDS011;42558;52.388;13.390;2022-11-18T15:42:19;15.58;;;7.79;;
56680;SDS011;42558;52.388;13.390;2022-11-18T15:44:52;12.73;;;6.84;;
56680;SDS011;42558;52.388;13.390;2022-11-18T15:47:21;14.82;;;7.60;;
56680;SDS011;42558;52.388;13.390;2022-11-18T15:49:51;12.54;;;7.60;;
56680;SDS011;42558;52.388;13.390;2022-11-18T15:52:21;12.16;;;6.46;;
56680;SDS011;42558;52.388;13.390;2022-11-18T15:54:51;12.92;;;8.17;;
56680;SDS011;42558;52.388;13.390;2022-11-18T15:57:21;13.68;;;8.55;;
56680;SDS011;42558;52.388;13.390;2022-11-18T15:59:51;13.30;;;6.84;;
56680;SDS011;42558;52.388;13.390;2022-11-18T16:02:21;13.30;;;6.84;;
56680;SDS011;42558;52.388;13.390;2022-11-18T16:04:51;12.54;;;8.17;;
56680;SDS011;42558;52.388;13.390;2022-11-18T16:07:20;11.40;;;6.84;;
56680;SDS011;42558;52.388;13.390;2022-11-18T16:09:51;15.01;;;6.84;;
56680;SDS011;42558;52.388;13.390;2022-11-18T16:12:39;12.16;;;6.65;;
56680;SDS011;42558;52.388;13.390;2022-11-18T16:15:15;12.35;;;7.60;;
56680;SDS011;42558;52.388;13.390;2022-11-18T16:18:05;11.02;;;6.65;;
56680;SDS011;42558;52.388;13.390;2022-11-18T16:20:33;16.15;;;7.41;;
56680;SDS011;42558;52.388;13.390;2022-11-18T16:23:02;12.16;;;6.65;;
56680;SDS011;42558;52.388;13.390;2022-11-18T16:25:31;13.11;;;7.22;;
56680;SDS011;42558;52.388;13.390;2022-11-18T16:28:00;11.97;;;7.41;;
56680;SDS011;42558;52.388;13.390;2022-11-18T16:30:36;13.11;;;7.79;;
56680;SDS011;42558;52.388;13.390;2022-11-18T16:33:24;12.35;;;6.65;;
56680;SDS011;42558;52.388;13.390;2022-11-18T16:35:54;13.87;;;9.12;;
56680;SDS011;42558;52.388;13.390;2022-11-18T16:38:24;16.72;;;7.60;;
56680;SDS011;42558;52.388;13.390;2022-11-18T16:40:55;26.41;;;14.25;;
56680;SDS011;42558;52.388;13.390;2022-11-18T16:43:27;45.98;;;25.84;;
56680;SDS011;42558;52.388;13.390;2022-11-18T16:45:57;34.01;;;23.94;;
56680;SDS011;42558;52.388;13.390;2022-11-18T16:48:27;26.22;;;21.28;;
56680;SDS011;42558;52.388;13.390;2022-11-18T16:53:52;24.70;;;17.86;;
56680;SDS011;42558;52.388;13.390;2022-11-18T16:56:29;22.80;;;14.63;;
56680;SDS011;42558;52.388;13.390;2022-11-18T16:59:05;18.43;;;11.97;;
56680;SDS011;42558;52.388;13.390;2022-11-18T17:01:43;21.09;;;11.97;;
56680;SDS011;42558;52.388;13.390;2022-11-18T17:04:14;32.30;;;17.67;;
56680;SDS011;42558;52.388;13.390;2022-11-18T17:06:45;41.80;;;22.42;;
56680;SDS011;42558;52.388;13.390;2022-11-18T17:09:17;45.41;;;25.27;;